Time;durP1;ratioP1;P1;durP2;ratioP2;P2;SDS_P1;SDS_P2;PMS_P1;PMS_P2;Temp;Humidity;BMP_temperature;BMP_pressure;BME280_temperature;BME280_humidity;BME280_pressure;Samples;Min_cycle;Max_cycle;Signal;HPM_P1;HPM_P2
2021/04/07 00:00:50;;;;;;;25.80;9.63;;;;;;;8.56;100.00;99639.63;5053109;28;20454;-73
2021/04/07 00:03:36;;;;;;;12.98;10.00;;;;;;;8.74;100.00;99644.34;5053367;28;20130;-73
2021/04/07 00:06:22;;;;;;;15.45;10.05;;;;;;;8.48;100.00;99634.56;5053453;28;20061;-74
2021/04/07 00:09:08;;;;;;;13.57;9.68;;;;;;;8.64;100.00;99638.50;5053395;28;20051;-73
2021/04/07 00:11:55;;;;;;;17.60;10.05;;;;;;;8.18;100.00;99635.34;5053372;28;20361;-73
2021/04/07 00:14:40;;;;;;;13.75;9.70;;;;;;;8.18;100.00;99631.88;5053289;28;20021;-73
2021/04/07 00:17:26;;;;;;;14.73;9.82;;;;;;;8.30;100.00;99626.38;5053444;28;20115;-74
2021/04/07 00:20:15;;;;;;;15.45;9.55;;;;;;;8.41;100.00;99626.97;5053281;28;20029;-73
2021/04/07 00:23:02;;;;;;;13.45;9.85;;;;;;;8.32;100.00;99611.56;5053929;28;20111;-73
2021/04/07 00:25:48;;;;;;;15.65;10.02;;;;;;;8.35;100.00;99612.31;5052929;28;20044;-73
2021/04/07 00:28:34;;;;;;;13.57;9.65;;;;;;;8.66;100.00;99614.97;5053452;28;20048;-74
2021/04/07 00:31:20;;;;;;;12.90;9.63;;;;;;;8.62;100.00;99622.03;5052995;28;20025;-73
2021/04/07 00:34:05;;;;;;;17.00;9.55;;;;;;;8.76;100.00;99612.06;5052896;28;20044;-73
2021/04/07 00:36:51;;;;;;;14.13;9.27;;;;;;;8.73;100.00;99614.75;5038681;28;20083;-74
2021/04/07 00:39:37;;;;;;;13.57;9.18;;;;;;;8.56;100.00;99613.50;5038630;28;20039;-73
2021/04/07 00:42:23;;;;;;;12.23;9.02;;;;;;;8.47;100.00;99600.69;5053252;28;20087;-73
2021/04/07 00:45:10;;;;;;;13.88;9.35;;;;;;;8.49;100.00;99601.50;5053035;28;20025;-73
2021/04/07 00:47:56;;;;;;;12.65;9.02;;;;;;;8.50;100.00;99606.69;5038676;28;20017;-74
2021/04/07 00:50:42;;;;;;;14.48;9.48;;;;;;;8.50;100.00;99613.66;5037813;28;20032;-73
2021/04/07 00:53:28;;;;;;;12.55;8.93;;;;;;;8.39;100.00;99624.38;5052547;28;20044;-74
2021/04/07 00:56:14;;;;;;;12.95;9.10;;;;;;;8.56;100.00;99637.84;5039172;28;20029;-74
2021/04/07 00:59:00;;;;;;;11.90;8.60;;;;;;;8.31;100.00;99633.28;5052850;28;20505;-74
2021/04/07 01:01:46;;;;;;;11.95;8.90;;;;;;;8.10;100.00;99645.13;5038747;28;20434;-73
2021/04/07 01:04:32;;;;;;;12.13;8.80;;;;;;;7.94;100.00;99641.16;5053127;28;20025;-74
2021/04/07 01:07:18;;;;;;;11.50;8.25;;;;;;;8.29;100.00;99641.19;5052916;28;20032;-73
2021/04/07 01:10:09;;;;;;;12.75;8.95;;;;;;;8.22;100.00;99662.22;5053014;28;20468;-73
2021/04/07 01:12:55;;;;;;;14.90;9.10;;;;;;;7.97;100.00;99666.31;5055865;28;20102;-72
2021/04/07 01:15:41;;;;;;;12.93;8.88;;;;;;;7.96;100.00;99662.00;5056428;28;20104;-73
2021/04/07 01:18:27;;;;;;;14.38;9.57;;;;;;;7.89;100.00;99673.44;5056330;28;20033;-74
2021/04/07 01:21:13;;;;;;;13.93;9.38;;;;;;;8.03;100.00;99681.78;5056165;28;20040;-74
2021/04/07 01:23:59;;;;;;;15.23;9.45;;;;;;;7.63;100.00;99673.19;5056440;28;20036;-73
2021/04/07 01:26:45;;;;;;;14.18;9.60;;;;;;;7.71;100.00;99684.28;5056276;28;20036;-73
2021/04/07 01:29:32;;;;;;;12.32;9.13;;;;;;;7.58;100.00;99696.75;5057160;28;20412;-72
2021/04/07 01:32:18;;;;;;;16.88;10.48;;;;;;;7.68;100.00;99700.84;5056056;28;20029;-73
2021/04/07 01:35:05;;;;;;;15.95;9.82;;;;;;;7.51;100.00;99692.53;5056513;28;20108;-73
2021/04/07 01:37:51;;;;;;;13.77;10.00;;;;;;;7.67;100.00;99704.34;5042274;28;20033;-73
2021/04/07 01:40:38;;;;;;;15.60;9.68;;;;;;;7.89;100.00;99691.69;5055665;28;20040;-73
2021/04/07 01:43:25;;;;;;;15.45;10.88;;;;;;;7.57;100.00;99692.44;5055943;28;20461;-73
2021/04/07 01:46:13;;;;;;;16.10;10.25;;;;;;;7.32;100.00;99706.84;5055437;28;20037;-73
2021/04/07 01:48:59;;;;;;;15.60;9.68;;;;;;;7.25;100.00;99694.84;5056165;28;20094;-73
2021/04/07 01:51:45;;;;;;;14.30;9.82;;;;;;;7.11;100.00;99686.44;5055653;28;20032;-73
2021/04/07 01:54:33;;;;;;;15.90;10.40;;;;;;;7.21;100.00;99701.00;5055102;28;20342;-73
2021/04/07 01:57:19;;;;;;;13.77;9.82;;;;;;;6.86;100.00;99681.75;5040660;28;20033;-73
2021/04/07 02:00:14;;;;;;;14.80;10.13;;;;;;;6.95;100.00;99669.41;5027324;28;20040;-73
2021/04/07 02:03:04;;;;;;;16.33;9.95;;;;;;;6.91;100.00;99665.16;5040904;28;20029;-73
2021/04/07 02:05:50;;;;;;;14.57;10.00;;;;;;;7.15;100.00;99661.22;5054915;28;20037;-74
2021/04/07 02:08:35;;;;;;;15.82;10.55;;;;;;;6.98;100.00;99668.50;5054853;28;20110;-74
2021/04/07 02:11:21;;;;;;;13.38;9.80;;;;;;;6.97;100.00;99670.25;5055652;28;20026;-73
2021/04/07 02:14:09;;;;;;;13.98;9.55;;;;;;;7.13;100.00;99686.41;5055179;28;20102;-73
2021/04/07 02:16:56;;;;;;;14.30;10.05;;;;;;;6.95;100.00;99679.81;5040730;28;20029;-73
2021/04/07 02:19:42;;;;;;;13.88;9.80;;;;;;;6.95;100.00;99672.00;5055456;28;20335;-72
2021/04/07 02:22:28;;;;;;;19.10;10.98;;;;;;;6.86;100.00;99673.94;5054984;28;20021;-74
2021/04/07 02:25:14;;;;;;;18.38;10.35;;;;;;;6.78;100.00;99681.91;5055128;28;20057;-74
2021/04/07 02:28:00;;;;;;;14.63;9.23;;;;;;;6.84;100.00;99676.59;5055705;28;20524;-73
2021/04/07 02:30:45;;;;;;;14.23;10.40;;;;;;;6.90;100.00;99684.28;5055026;28;20339;-73
2021/04/07 02:33:31;;;;;;;17.33;10.98;;;;;;;6.84;100.00;99683.53;5053798;28;20453;-73
2021/04/07 02:36:17;;;;;;;15.98;10.80;;;;;;;6.98;100.00;99684.97;5040396;28;20119;-73
2021/04/07 02:39:04;;;;;;;14.85;10.18;;;;;;;7.01;100.00;99681.44;5039526;28;20098;-74
2021/04/07 02:41:50;;;;;;;16.08;10.40;;;;;;;7.18;100.00;99695.84;5054839;28;20021;-73
2021/04/07 02:44:37;;;;;;;14.00;10.45;;;;;;;7.14;100.00;99702.03;5054721;28;20025;-73
2021/04/07 02:47:23;;;;;;;15.38;9.80;;;;;;;6.78;100.00;99714.88;5055036;28;20025;-73
2021/04/07 02:50:09;;;;;;;16.17;10.57;;;;;;;7.01;100.00;99710.97;5054482;28;20085;-73
2021/04/07 02:52:55;;;;;;;13.88;10.05;;;;;;;6.99;100.00;99714.50;5055186;28;20500;-73
2021/04/07 02:55:41;;;;;;;16.38;10.98;;;;;;;6.85;100.00;99706.06;5039776;28;20035;-74
2021/04/07 02:58:26;;;;;;;14.50;10.48;;;;;;;6.82;100.00;99701.78;5054414;28;20025;-74
2021/04/07 03:01:12;;;;;;;13.98;10.02;;;;;;;6.91;100.00;99703.38;5054490;28;20021;-74
2021/04/07 03:03:58;;;;;;;14.52;10.02;;;;;;;7.13;100.00;99707.25;5054110;28;20037;-75
2021/04/07 03:06:44;;;;;;;15.48;10.32;;;;;;;6.89;100.00;99711.19;5053741;28;20025;-73
2021/04/07 03:09:29;;;;;;;14.60;9.80;;;;;;;6.83;100.00;99705.25;5054818;28;20017;-74
2021/04/07 03:12:15;;;;;;;13.57;9.60;;;;;;;6.90;100.00;99696.41;5053678;28;20421;-73
2021/04/07 03:15:01;;;;;;;14.60;10.13;;;;;;;7.02;100.00;99704.00;5054062;28;20036;-73
2021/04/07 03:17:48;;;;;;;15.18;9.70;;;;;;;7.05;100.00;99719.56;5054226;28;20067;-74
2021/04/07 03:20:34;;;;;;;16.15;9.48;;;;;;;6.99;100.00;99745.75;5039551;28;20029;-74
2021/04/07 03:23:20;;;;;;;14.98;9.65;;;;;;;6.86;100.00;99752.91;5053490;28;20123;-73
2021/04/07 03:26:06;;;;;;;14.43;10.25;;;;;;;6.68;100.00;99763.66;5053626;28;20098;-73
2021/04/07 03:28:51;;;;;;;18.48;10.60;;;;;;;6.81;100.00;99757.34;5054091;28;20028;-73
2021/04/07 03:31:37;;;;;;;16.38;10.48;;;;;;;6.80;100.00;99737.41;5038780;28;20441;-73
2021/04/07 03:34:23;;;;;;;15.60;9.95;;;;;;;6.62;100.00;99765.47;5038222;28;20028;-73
2021/04/07 03:37:09;;;;;;;17.92;9.52;;;;;;;6.79;100.00;99763.47;5053824;28;20021;-73
2021/04/07 03:39:54;;;;;;;17.20;9.93;;;;;;;6.65;100.00;99763.69;5053933;28;20120;-73
2021/04/07 03:42:40;;;;;;;15.50;9.98;;;;;;;6.73;100.00;99777.44;5053239;28;20016;-74
2021/04/07 03:45:26;;;;;;;13.10;9.20;;;;;;;6.86;100.00;99775.47;5052645;28;20025;-74
2021/04/07 03:48:14;;;;;;;15.07;9.98;;;;;;;6.90;100.00;99780.59;5053044;28;20028;-74
2021/04/07 03:51:00;;;;;;;15.23;10.00;;;;;;;6.66;100.00;99803.56;5053259;28;20357;-75
2021/04/07 03:53:46;;;;;;;12.80;9.02;;;;;;;6.46;100.00;99801.28;5053616;28;20029;-73
2021/04/07 03:56:32;;;;;;;12.70;9.20;;;;;;;6.60;100.00;99807.16;5039070;28;20513;-74
2021/04/07 03:59:18;;;;;;;14.32;9.50;;;;;;;6.69;100.00;99806.13;5039220;28;20059;-74
2021/04/07 04:02:04;;;;;;;13.55;9.30;;;;;;;6.75;100.00;99816.44;5039544;28;20025;-73
2021/04/07 04:04:50;;;;;;;11.63;8.75;;;;;;;6.64;100.00;99818.34;5024908;28;20075;-74
2021/04/07 04:07:36;;;;;;;13.65;9.07;;;;;;;6.62;100.00;99823.59;5053011;28;20107;-74
2021/04/07 04:10:21;;;;;;;11.60;8.70;;;;;;;6.71;100.00;99833.84;5053522;28;20065;-74
2021/04/07 04:13:07;;;;;;;14.60;9.40;;;;;;;6.46;100.00;99840.31;5052571;28;20369;-74
2021/04/07 04:15:53;;;;;;;11.80;8.55;;;;;;;6.68;100.00;99848.66;5053507;28;20041;-73
2021/04/07 04:18:40;;;;;;;14.52;9.35;;;;;;;6.54;100.00;99861.00;5052617;28;20033;-74
2021/04/07 04:21:26;;;;;;;11.27;8.55;;;;;;;6.59;100.00;99860.06;5052614;28;20095;-73
2021/04/07 04:24:12;;;;;;;11.23;8.20;;;;;;;6.87;100.00;99873.53;5053231;28;20063;-73
2021/04/07 04:26:58;;;;;;;12.15;9.05;;;;;;;6.79;100.00;99878.00;5052549;28;20028;-74
2021/04/07 04:29:43;;;;;;;12.63;9.13;;;;;;;6.67;100.00;99879.00;5053434;28;20468;-74
2021/04/07 04:32:29;;;;;;;14.38;9.32;;;;;;;6.85;100.00;99877.88;5052906;28;20033;-73
2021/04/07 04:35:15;;;;;;;13.45;9.32;;;;;;;6.86;100.00;99890.00;5054007;28;20028;-73
2021/04/07 04:38:01;;;;;;;10.88;7.75;;;;;;;6.65;100.00;99900.75;5053008;28;20068;-73
2021/04/07 04:40:47;;;;;;;14.82;9.00;;;;;;;6.29;100.00;99890.84;5053533;28;20025;-73
2021/04/07 04:43:32;;;;;;;12.82;8.93;;;;;;;6.21;100.00;99888.38;5052609;28;20075;-74
2021/04/07 04:46:18;;;;;;;12.50;8.63;;;;;;;6.56;100.00;99877.47;5054865;28;20028;-73
2021/04/07 04:49:04;;;;;;;16.83;9.73;;;;;;;6.39;100.00;99877.69;5056939;28;20025;-72
2021/04/07 04:51:50;;;;;;;14.32;9.40;;;;;;;6.50;100.00;99894.03;5056504;28;20021;-74
2021/04/07 04:54:35;;;;;;;14.65;9.40;;;;;;;6.74;100.00;99879.78;5057512;28;20043;-73
2021/04/07 04:57:21;;;;;;;15.65;8.90;;;;;;;6.81;100.00;99865.78;5056996;28;20342;-73
2021/04/07 05:00:08;;;;;;;11.88;8.77;;;;;;;6.69;100.00;99874.66;5056740;28;20081;-73
2021/04/07 05:02:54;;;;;;;12.52;8.88;;;;;;;6.69;100.00;99881.59;5055943;28;20480;-73
2021/04/07 05:05:40;;;;;;;17.13;9.38;;;;;;;6.94;100.00;99882.94;5056957;28;20040;-75
2021/04/07 05:08:26;;;;;;;22.15;9.38;;;;;;;7.19;100.00;99899.91;5056399;28;20071;-73
2021/04/07 05:11:11;;;;;;;15.55;8.73;;;;;;;6.86;100.00;99911.69;5056188;28;20119;-74
2021/04/07 05:13:58;;;;;;;12.80;8.77;;;;;;;7.07;100.00;99908.75;5041692;28;20036;-72
2021/04/07 05:16:44;;;;;;;14.82;8.50;;;;;;;6.77;100.00;99921.38;5041389;28;20032;-74
2021/04/07 05:19:30;;;;;;;14.10;8.88;;;;;;;6.61;100.00;99925.09;5042609;28;20029;-74
2021/04/07 05:22:16;;;;;;;12.50;8.88;;;;;;;6.81;100.00;99931.75;5056847;28;20339;-73
2021/04/07 05:25:03;;;;;;;12.00;8.52;;;;;;;7.00;100.00;99937.53;5055883;28;20025;-73
2021/04/07 05:27:49;;;;;;;13.65;8.50;;;;;;;7.33;100.00;99953.47;5041306;28;20056;-74
2021/04/07 05:33:40;;;;;;;15.15;8.63;;;;;;;7.17;100.00;99958.94;5056034;28;20029;-73
2021/04/07 05:36:26;;;;;;;11.23;8.10;;;;;;;7.07;100.00;99962.59;5056180;28;20025;-74
2021/04/07 05:39:12;;;;;;;11.85;7.95;;;;;;;7.08;100.00;99969.53;5055175;28;20041;-73
2021/04/07 05:41:58;;;;;;;9.38;6.82;;;;;;;7.00;100.00;99992.22;5041487;28;20100;-73
2021/04/07 05:44:43;;;;;;;18.98;10.65;;;;;;;7.14;100.00;100013.69;5040960;28;20453;-73
2021/04/07 05:47:31;;;;;;;10.73;6.20;;;;;;;6.95;100.00;100014.88;5055444;28;20097;-74
2021/04/07 05:50:17;;;;;;;12.32;6.47;;;;;;;7.14;100.00;100022.38;5055380;28;20106;-73
2021/04/07 05:53:03;;;;;;;7.55;5.90;;;;;;;7.14;100.00;100013.69;5055578;28;20118;-73
2021/04/07 05:55:52;;;;;;;13.30;6.60;;;;;;;6.86;100.00;100018.44;5055839;28;20028;-73
2021/04/07 05:58:38;;;;;;;8.35;6.13;;;;;;;6.87;100.00;100008.91;5054899;28;20029;-73
2021/04/07 06:01:26;;;;;;;7.70;5.90;;;;;;;6.83;100.00;100023.69;5055814;28;20029;-74
2021/04/07 06:04:12;;;;;;;9.10;5.80;;;;;;;7.11;100.00;100008.53;5040809;28;20032;-73
2021/04/07 06:06:58;;;;;;;8.57;5.97;;;;;;;7.10;100.00;100027.63;5055889;28;20108;-73
2021/04/07 06:09:44;;;;;;;9.98;6.43;;;;;;;7.26;100.00;100021.31;5041221;28;20028;-73
2021/04/07 06:12:29;;;;;;;9.68;6.25;;;;;;;7.28;100.00;100045.63;5054624;28;20029;-73
2021/04/07 06:15:15;;;;;;;10.20;6.18;;;;;;;7.06;100.00;100050.28;5054306;28;20021;-73
2021/04/07 06:18:02;;;;;;;10.82;6.75;;;;;;;7.01;100.00;100054.69;5054648;28;20032;-74
2021/04/07 06:20:50;;;;;;;7.38;6.32;;;;;;;7.40;100.00;100032.41;5053449;28;20031;-74
2021/04/07 06:23:36;;;;;;;12.73;6.45;;;;;;;7.34;100.00;100051.59;5040551;28;20043;-74
2021/04/07 06:26:21;;;;;;;8.20;6.35;;;;;;;7.31;100.00;100056.84;5054941;28;20067;-73
2021/04/07 06:29:07;;;;;;;11.32;8.02;;;;;;;7.37;100.00;100066.31;5056895;28;20033;-75
2021/04/07 06:31:53;;;;;;;10.18;6.38;;;;;;;7.26;100.00;100076.91;5054815;28;20111;-74
2021/04/07 06:34:38;;;;;;;9.93;6.88;;;;;;;7.00;100.00;100088.56;5055448;28;20036;-73
2021/04/07 06:37:24;;;;;;;9.80;7.00;;;;;;;6.87;100.00;100081.78;5054833;28;20090;-74
2021/04/07 06:40:10;;;;;;;8.30;6.43;;;;;;;7.02;100.00;100077.22;5040714;28;20032;-74
2021/04/07 06:43:00;;;;;;;8.30;6.15;;;;;;;7.32;100.00;100083.78;5054137;28;20354;-74
2021/04/07 06:45:46;;;;;;;9.88;6.95;;;;;;;7.23;100.00;100082.16;5054618;28;20029;-73
2021/04/07 06:48:32;;;;;;;9.60;7.35;;;;;;;7.06;100.00;100089.34;5039939;28;20357;-74
2021/04/07 06:51:21;;;;;;;15.30;7.95;;;;;;;7.12;100.00;100109.22;5053609;28;20124;-74
2021/04/07 06:54:08;;;;;;;9.30;8.10;;;;;;;7.08;100.00;100111.00;5039334;28;20061;-74
2021/04/07 06:56:54;;;;;;;10.82;8.23;;;;;;;7.08;100.00;100120.56;5040189;28;20025;-74
2021/04/07 06:59:43;;;;;;;11.77;8.93;;;;;;;7.15;100.00;100119.63;5039360;28;20174;-73
2021/04/07 07:02:29;;;;;;;11.02;8.57;;;;;;;6.94;100.00;100122.47;5054214;28;20021;-74
2021/04/07 07:05:17;;;;;;;9.50;7.95;;;;;;;6.76;100.00;100141.81;5054537;28;20036;-74
2021/04/07 07:08:08;;;;;;;11.95;8.32;;;;;;;6.71;100.00;100155.75;5055079;28;20048;-74
2021/04/07 07:10:54;;;;;;;9.60;7.80;;;;;;;6.53;100.00;100143.78;5052783;28;20028;-74
2021/04/07 07:13:43;;;;;;;8.10;7.10;;;;;;;6.73;100.00;100141.84;5053817;28;20042;-75
2021/04/07 07:16:29;;;;;;;7.82;7.03;;;;;;;7.11;100.00;100136.16;5055032;28;20025;-75
2021/04/07 07:19:42;;;;;;;7.50;5.38;;;;;;;6.98;100.00;100148.47;5039413;28;20033;-74
2021/04/07 07:22:35;;;;;;;7.60;5.88;;;;;;;6.96;100.00;100165.00;5054234;28;20017;-74
2021/04/07 07:25:21;;;;;;;9.88;5.60;;;;;;;7.01;100.00;100169.28;5039346;28;20028;-73
2021/04/07 07:28:07;;;;;;;5.50;4.72;;;;;;;7.24;100.00;100166.38;5053471;28;20028;-73
2021/04/07 07:30:53;;;;;;;6.22;4.55;;;;;;;7.61;100.00;100159.78;5053947;28;20036;-75
2021/04/07 07:33:40;;;;;;;4.60;3.45;;;;;;;7.57;100.00;100161.59;5043904;23;20107;-75
2021/04/07 07:36:37;;;;;;;6.32;3.15;;;;;;;7.15;100.00;100167.34;5034674;28;20033;-74
2021/04/07 07:39:36;;;;;;;7.38;4.63;;;;;;;7.00;100.00;100175.38;5033101;28;20030;-73
2021/04/07 07:42:32;;;;;;;9.55;4.25;;;;;;;6.84;100.00;100159.94;5039957;28;20057;-74
2021/04/07 07:45:36;;;;;;;5.90;3.65;;;;;;;7.12;100.00;100158.72;5036675;28;20040;-74
2021/04/07 07:48:53;;;;;;;5.75;4.00;;;;;;;7.37;100.00;100160.13;5054391;28;20111;-74
2021/04/07 07:51:45;;;;;;;6.30;4.63;;;;;;;7.53;100.00;100154.69;5039368;28;20040;-73
2021/04/07 07:54:30;;;;;;;7.50;5.43;;;;;;;7.36;100.00;100161.00;5053288;28;20035;-74
2021/04/07 07:57:16;;;;;;;6.65;5.72;;;;;;;7.77;100.00;100179.53;5053334;28;20025;-74
2021/04/07 08:00:09;;;;;;;7.03;5.20;;;;;;;7.09;100.00;100196.09;5038634;28;20453;-75
2021/04/07 08:03:06;;;;;;;6.13;5.03;;;;;;;7.37;100.00;100225.25;5053103;28;20055;-74
2021/04/07 08:05:58;;;;;;;7.35;4.40;;;;;;;7.23;100.00;100228.03;5038907;28;20025;-75
2021/04/07 08:08:44;;;;;;;7.03;4.38;;;;;;;7.07;100.00;100239.50;5038787;28;20052;-75
2021/04/07 08:11:30;;;;;;;5.07;4.57;;;;;;;6.74;100.00;100239.84;5053759;28;20507;-73
2021/04/07 08:14:18;;;;;;;7.18;5.97;;;;;;;6.80;100.00;100242.41;5053402;28;20033;-73
2021/04/07 08:17:05;;;;;;;7.63;6.00;;;;;;;6.58;100.00;100253.88;5053465;28;20033;-72
2021/04/07 08:20:09;;;;;;;7.68;6.68;;;;;;;6.18;100.00;100262.88;5039494;28;20029;-73
2021/04/07 08:22:57;;;;;;;9.13;6.75;;;;;;;6.26;100.00;100261.09;5057894;28;20063;-74
2021/04/07 08:25:53;;;;;;;9.45;6.93;;;;;;;5.74;100.00;100253.63;5057628;28;20108;-75
2021/04/07 08:28:40;;;;;;;10.85;8.50;;;;;;;5.79;100.00;100277.84;5042247;28;20365;-74
2021/04/07 08:31:27;;;;;;;10.32;8.43;;;;;;;5.62;100.00;100282.28;5058662;28;20036;-75
2021/04/07 08:34:13;;;;;;;15.88;10.30;;;;;;;5.44;100.00;100278.84;5040411;28;20049;-74
2021/04/07 08:36:59;;;;;;;11.75;9.73;;;;;;;5.39;100.00;100271.97;5024358;28;20026;-74
2021/04/07 08:39:45;;;;;;;9.80;8.55;;;;;;;5.47;100.00;100261.53;5036520;28;20033;-74
2021/04/07 08:42:32;;;;;;;10.98;8.63;;;;;;;5.85;100.00;100264.84;5037003;28;20064;-75
2021/04/07 08:45:19;;;;;;;7.47;6.53;;;;;;;6.02;100.00;100257.81;5037054;28;20450;-75
2021/04/07 08:48:18;;;;;;;8.77;7.25;;;;;;;5.93;100.00;100269.13;5036588;28;20166;-73
2021/04/07 08:51:06;;;;;;;9.02;7.80;;;;;;;6.37;100.00;100276.63;5036113;28;20087;-74
2021/04/07 08:54:04;;;;;;;8.98;7.72;;;;;;;6.63;100.00;100287.69;5036919;28;20025;-75
2021/04/07 08:56:57;;;;;;;10.55;8.23;;;;;;;6.75;100.00;100293.63;5037528;28;20521;-74
2021/04/07 08:59:46;;;;;;;8.32;7.50;;;;;;;7.18;100.00;100283.66;5035964;28;20030;-74
2021/04/07 09:02:32;;;;;;;12.35;7.53;;;;;;;7.51;100.00;100289.38;5022526;28;20460;-75
2021/04/07 09:05:32;;;;;;;8.13;7.15;;;;;;;7.15;100.00;100294.13;5036943;28;20028;-76
2021/04/07 09:08:20;;;;;;;7.80;6.32;;;;;;;6.93;100.00;100298.69;5036512;28;20029;-74
2021/04/07 09:11:06;;;;;;;7.20;6.22;;;;;;;7.20;100.00;100298.41;5035586;28;20029;-74
2021/04/07 09:13:58;;;;;;;6.47;5.78;;;;;;;6.95;100.00;100304.72;5035572;28;20030;-74
2021/04/07 09:16:47;;;;;;;7.80;6.35;;;;;;;7.38;100.00;100299.94;5035862;28;20033;-74
2021/04/07 09:19:34;;;;;;;7.13;6.43;;;;;;;7.26;100.00;100280.09;5036784;28;20029;-73
2021/04/07 09:22:25;;;;;;;6.40;5.53;;;;;;;7.86;100.00;100275.88;5036152;28;20026;-74
2021/04/07 09:25:18;;;;;;;6.88;6.10;;;;;;;7.96;100.00;100288.75;5036053;28;20126;-74
2021/04/07 09:28:07;;;;;;;11.25;5.80;;;;;;;8.26;100.00;100287.50;5035274;28;20032;-74
2021/04/07 09:30:53;;;;;;;6.38;5.68;;;;;;;8.59;100.00;100292.19;5036140;28;20107;-74
2021/04/07 09:33:42;;;;;;;5.95;5.30;;;;;;;8.37;100.00;100296.88;5050513;28;20053;-73
2021/04/07 09:36:29;;;;;;;5.88;5.28;;;;;;;8.91;100.00;100300.34;5054891;28;20067;-73
2021/04/07 09:39:18;;;;;;;6.70;5.60;;;;;;;8.29;100.00;100295.28;5055402;28;20029;-75
2021/04/07 09:42:05;;;;;;;9.35;5.88;;;;;;;8.28;100.00;100302.25;5055813;28;20052;-74
2021/04/07 09:44:51;;;;;;;5.93;5.07;;;;;;;8.51;100.00;100304.50;5040613;28;20346;-74
2021/04/07 09:47:36;;;;;;;7.05;5.60;;;;;;;8.79;100.00;100295.34;5055907;28;20097;-75
2021/04/07 09:50:30;;;;;;;8.68;5.57;;;;;;;8.68;100.00;100307.72;5054259;28;20087;-75
2021/04/07 09:53:28;;;;;;;9.20;5.45;;;;;;;8.29;100.00;100308.34;5055298;28;20033;-76
2021/04/07 09:56:15;;;;;;;6.03;5.07;;;;;;;9.19;100.00;100298.97;5039859;28;20021;-75
2021/04/07 09:59:01;;;;;;;6.40;5.32;;;;;;;8.78;100.00;100288.38;5054585;28;20052;-74
2021/04/07 10:01:46;;;;;;;7.28;5.60;;;;;;;8.49;100.00;100293.25;5054911;28;20342;-74
2021/04/07 10:04:39;;;;;;;10.55;6.40;;;;;;;8.59;100.00;100302.63;5040784;28;20035;-75
2021/04/07 10:07:27;;;;;;;6.75;5.10;;;;;;;8.64;100.00;100295.63;5055119;28;20028;-74
2021/04/07 10:10:13;;;;;;;9.25;4.97;;;;;;;8.42;100.00;100305.53;5040307;28;20453;-75
2021/04/07 10:12:59;;;;;;;8.57;5.68;;;;;;;8.73;100.00;100311.13;5054639;28;20017;-74
2021/04/07 10:15:45;;;;;;;7.72;5.47;;;;;;;8.79;100.00;100326.69;5056045;28;20116;-75
2021/04/07 10:18:31;;;;;;;7.53;5.38;;;;;;;8.93;100.00;100315.09;5055854;28;20029;-74
2021/04/07 10:21:19;;;;;;;6.55;5.75;;;;;;;8.71;100.00;100320.72;5055317;28;20095;-74
2021/04/07 10:24:06;;;;;;;9.23;7.95;;;;;;;8.60;100.00;100314.81;5056020;28;20079;-74
2021/04/07 10:26:52;;;;;;;7.95;5.78;;;;;;;8.84;100.00;100322.25;5041265;28;20029;-74
2021/04/07 10:29:38;;;;;;;7.15;6.05;;;;;;;9.06;100.00;100318.38;5054897;28;20040;-74
2021/04/07 10:32:27;;;;;;;9.45;6.03;;;;;;;9.24;100.00;100313.69;5054531;28;20103;-73
2021/04/07 10:35:21;;;;;;;8.13;6.05;;;;;;;9.41;100.00;100302.91;5040735;28;20024;-75
2021/04/07 10:38:12;;;;;;;7.10;5.82;;;;;;;9.53;100.00;100318.38;5055398;28;20024;-74
2021/04/07 10:40:59;;;;;;;8.27;6.03;;;;;;;9.43;100.00;100332.50;5054308;28;20025;-75
2021/04/07 10:43:45;;;;;;;11.25;6.30;;;;;;;9.84;100.00;100330.78;5054168;28;20457;-74
2021/04/07 10:46:31;;;;;;;8.45;6.03;;;;;;;9.90;100.00;100342.88;5054894;28;20099;-74
2021/04/07 10:49:17;;;;;;;7.03;5.72;;;;;;;9.77;100.00;100349.25;5054699;28;20025;-75
2021/04/07 10:52:06;;;;;;;8.73;6.72;;;;;;;9.46;100.00;100345.50;5055066;28;20029;-75
2021/04/07 10:54:57;;;;;;;8.70;6.07;;;;;;;9.83;100.00;100350.00;5039857;28;20346;-73
2021/04/07 10:57:47;;;;;;;10.13;6.32;;;;;;;9.93;100.00;100348.06;5055106;28;20396;-74
2021/04/07 11:00:38;;;;;;;8.18;5.90;;;;;;;9.46;100.00;100364.69;5054622;28;20082;-74
2021/04/07 11:03:32;;;;;;;11.07;6.10;;;;;;;9.97;100.00;100362.81;5039093;28;20552;-73
2021/04/07 11:06:23;;;;;;;11.13;6.57;;;;;;;9.67;100.00;100373.88;5053359;28;20041;-74
2021/04/07 11:09:13;;;;;;;8.15;6.05;;;;;;;9.97;100.00;100366.25;5053962;28;20025;-75
2021/04/07 11:12:02;;;;;;;8.88;5.72;;;;;;;9.34;100.00;100356.19;5026690;28;20021;-73
2021/04/07 11:14:53;;;;;;;8.05;5.55;;;;;;;9.27;100.00;100363.28;5039919;28;20360;-74
2021/04/07 11:17:49;;;;;;;11.52;6.22;;;;;;;9.57;100.00;100367.09;5039748;28;20063;-74
2021/04/07 11:20:39;;;;;;;6.57;5.40;;;;;;;9.81;100.00;100358.78;5039439;28;20033;-77
2021/04/07 11:23:24;;;;;;;6.60;4.68;;;;;;;9.55;100.00;100363.63;5047216;23;20049;-74
2021/04/07 11:26:10;;;;;;;7.45;4.47;;;;;;;9.55;100.00;100359.28;5033437;28;20473;-74
2021/04/07 11:28:56;;;;;;;8.65;4.55;;;;;;;9.70;100.00;100360.72;5034673;28;20033;-74
2021/04/07 11:31:42;;;;;;;8.60;4.50;;;;;;;9.97;100.00;100353.19;5020442;28;20060;-74
2021/04/07 11:34:36;;;;;;;7.63;3.92;;;;;;;10.21;100.00;100357.09;5053917;28;20033;-76
2021/04/07 11:37:35;;;;;;;8.00;3.95;;;;;;;10.07;100.00;100356.50;5053759;28;20031;-74
2021/04/07 11:43:30;;;;;;;6.93;4.50;;;;;;;10.39;100.00;100368.88;5053563;28;20091;-75
2021/04/07 11:46:16;;;;;;;5.13;4.43;;;;;;;10.34;99.33;100379.47;5039391;28;20098;-73
2021/04/07 11:49:03;;;;;;;8.13;5.13;;;;;;;10.89;96.75;100369.44;5052889;28;20029;-74
2021/04/07 11:51:49;;;;;;;7.97;4.75;;;;;;;11.30;96.14;100373.66;5053464;28;20397;-74
2021/04/07 11:54:34;;;;;;;8.20;4.80;;;;;;;11.10;95.93;100374.16;5053353;28;20398;-75
2021/04/07 11:57:20;;;;;;;7.28;5.10;;;;;;;10.93;96.74;100392.03;5053340;28;20041;-74
2021/04/07 12:00:08;;;;;;;7.63;4.85;;;;;;;11.03;97.43;100396.19;5053201;28;20020;-73
2021/04/07 12:02:54;;;;;;;7.18;5.47;;;;;;;10.90;97.30;100391.28;5038119;28;20040;-74
2021/04/07 12:05:42;;;;;;;20.27;6.10;;;;;;;10.61;96.62;100391.94;5039757;28;20134;-73
2021/04/07 12:08:28;;;;;;;11.90;6.10;;;;;;;10.50;97.61;100396.56;5053262;28;20036;-74
2021/04/07 12:11:14;;;;;;;8.32;5.25;;;;;;;10.51;97.47;100398.28;5053470;28;20033;-74
2021/04/07 12:14:01;;;;;;;9.15;6.18;;;;;;;10.56;97.70;100395.59;5038688;28;20449;-74
2021/04/07 12:16:47;;;;;;;13.30;5.78;;;;;;;10.38;96.89;100393.34;5053406;28;20067;-74
2021/04/07 12:19:34;;;;;;;8.32;5.60;;;;;;;10.54;97.08;100403.47;5053529;28;20021;-74
2021/04/07 12:22:20;;;;;;;10.52;7.70;;;;;;;10.64;100.00;100412.84;5053173;28;20126;-74
2021/04/07 12:25:06;;;;;;;10.40;6.38;;;;;;;10.60;98.32;100407.72;5038639;28;20112;-74
2021/04/07 12:27:52;;;;;;;7.22;5.97;;;;;;;10.88;98.34;100414.88;5052811;28;20472;-74
2021/04/07 12:30:51;;;;;;;9.82;6.20;;;;;;;10.68;96.91;100416.28;5053211;28;20063;-73
2021/04/07 12:33:36;;;;;;;8.55;5.78;;;;;;;10.66;95.82;100418.91;5052403;28;20025;-74
2021/04/07 12:36:27;;;;;;;9.48;5.57;;;;;;;10.73;94.61;100425.72;5052677;28;20035;-74
2021/04/07 12:39:13;;;;;;;7.47;5.50;;;;;;;10.50;94.31;100419.28;5052068;28;20025;-75
2021/04/07 12:42:00;;;;;;;9.98;5.22;;;;;;;10.09;92.97;100420.16;5038551;28;20419;-75
2021/04/07 12:44:46;;;;;;;6.95;5.40;;;;;;;10.60;90.44;100429.50;5052101;28;20307;-75
2021/04/07 12:47:35;;;;;;;7.05;5.45;;;;;;;10.79;91.02;100419.47;5052617;28;20028;-74
2021/04/07 12:50:21;;;;;;;8.98;5.75;;;;;;;10.89;90.17;100413.16;5038396;28;20025;-74
2021/04/07 12:53:10;;;;;;;10.27;5.43;;;;;;;11.51;85.95;100423.81;5053790;28;20025;-74
2021/04/07 12:55:58;;;;;;;12.15;5.55;;;;;;;10.54;87.49;100434.03;5053270;28;20039;-73
2021/04/07 12:58:47;;;;;;;7.95;5.50;;;;;;;10.94;88.16;100429.63;5038538;28;20025;-74
2021/04/07 13:01:32;;;;;;;8.80;5.75;;;;;;;11.15;87.72;100426.47;5038361;28;20468;-74
2021/04/07 13:04:18;;;;;;;9.23;5.60;;;;;;;11.17;86.65;100425.53;5052330;28;20112;-73